Sign in

Advertising

Info

Aviation weather - KDAB

METAR KDAB 210653Z 00000KT 9SM MIFG SCT250 16/16 A3010 RMK SLP192 T01610161

TAF KDAB 210539Z 2106/2206 VRB02KT P6SM SCT250 FM210900 00000KT 5SM BR FEW015 SCT250 FM211400 11010KT P6SM SCT040 BKN250 FM220200 12005KT P6SM FEW040 BKN250

Aviation weather from ADDS. Re-check weather before flight.

-